<?xml version="1.0" encoding="UTF-8" standalone="no" ?>
<gpx xmlns="http://www.topografix.com/GPX/1/1" xmlns:xsi="http://www.w3.org/2001/XMLSchema-instance" xsi:schemaLocation="http://www.topografix.com/GPX/1/1 http://www.topografix.com/GPX/1/1/gpx.xsd" version="1.1" creator="VisuGPX - https://www.visugpx.com">
  <metadata>
    <name>Sederon - J1 apm</name>
    <desc><![CDATA[Sederon - J1 apm aaaaaaaaaaaaaaaaaaaaaaaaaaaaaaaaaaaaaaaaaaaaaaaaaaaaaaaaaaaaaaaaa]]></desc>
  </metadata>
  <trk>
    <name><![CDATA[9257077-Sederon - J1 apm]]></name>
    <trkseg>
      <trkpt lat="44.2493" lon="5.5931">
        <ele>942</ele>
        <time>2018-10-29T10:56:52Z</time>
      </trkpt>
      <trkpt lat="44.24943" lon="5.59387">
        <ele>933</ele>
        <time>2018-10-29T10:57:52Z</time>
      </trkpt>
      <trkpt lat="44.24978" lon="5.59407">
        <ele>934</ele>
        <time>2018-10-29T10:58:52Z</time>
      </trkpt>
      <trkpt lat="44.25032" lon="5.594">
        <ele>941</ele>
        <time>2018-10-29T10:59:52Z</time>
      </trkpt>
      <trkpt lat="44.25068" lon="5.59418">
        <ele>944</ele>
        <time>2018-10-29T11:00:52Z</time>
      </trkpt>
      <trkpt lat="44.25034" lon="5.59358">
        <ele>947</ele>
        <time>2018-10-29T11:01:52Z</time>
      </trkpt>
      <trkpt lat="44.24984" lon="5.59345">
        <ele>944</ele>
        <time>2018-10-29T11:02:52Z</time>
      </trkpt>
      <trkpt lat="44.25047" lon="5.59313">
        <ele>955</ele>
        <time>2018-10-29T11:03:52Z</time>
      </trkpt>
      <trkpt lat="44.25089" lon="5.59349">
        <ele>954</ele>
        <time>2018-10-29T11:04:52Z</time>
      </trkpt>
      <trkpt lat="44.25143" lon="5.59342">
        <ele>964</ele>
        <time>2018-10-29T11:05:52Z</time>
      </trkpt>
      <trkpt lat="44.2516" lon="5.594">
        <ele>964</ele>
        <time>2018-10-29T11:06:52Z</time>
      </trkpt>
      <trkpt lat="44.25174" lon="5.59463">
        <ele>962</ele>
        <time>2018-10-29T11:07:52Z</time>
      </trkpt>
      <trkpt lat="44.25241" lon="5.59421">
        <ele>975</ele>
        <time>2018-10-29T11:08:52Z</time>
      </trkpt>
      <trkpt lat="44.25299" lon="5.5949">
        <ele>977</ele>
        <time>2018-10-29T11:09:52Z</time>
      </trkpt>
      <trkpt lat="44.25356" lon="5.59477">
        <ele>986</ele>
        <time>2018-10-29T11:10:52Z</time>
      </trkpt>
      <trkpt lat="44.25328" lon="5.59464">
        <ele>984</ele>
        <time>2018-10-29T11:11:52Z</time>
      </trkpt>
      <trkpt lat="44.253" lon="5.59406">
        <ele>987</ele>
        <time>2018-10-29T11:12:52Z</time>
      </trkpt>
      <trkpt lat="44.25384" lon="5.59421">
        <ele>997</ele>
        <time>2018-10-29T11:13:52Z</time>
      </trkpt>
      <trkpt lat="44.25446" lon="5.59429">
        <ele>1004</ele>
        <time>2018-10-29T11:14:52Z</time>
      </trkpt>
      <trkpt lat="44.254" lon="5.59326">
        <ele>1012</ele>
        <time>2018-10-29T11:15:52Z</time>
      </trkpt>
      <trkpt lat="44.25391" lon="5.59147">
        <ele>1028</ele>
        <time>2018-10-29T11:16:52Z</time>
      </trkpt>
      <trkpt lat="44.25509" lon="5.5925">
        <ele>1037</ele>
        <time>2018-10-29T11:17:52Z</time>
      </trkpt>
      <trkpt lat="44.25592" lon="5.59329">
        <ele>1043</ele>
        <time>2018-10-29T11:18:52Z</time>
      </trkpt>
      <trkpt lat="44.25597" lon="5.59369">
        <ele>1038</ele>
        <time>2018-10-29T11:19:52Z</time>
      </trkpt>
      <trkpt lat="44.25634" lon="5.59338">
        <ele>1051</ele>
        <time>2018-10-29T11:20:52Z</time>
      </trkpt>
      <trkpt lat="44.25582" lon="5.5928">
        <ele>1049</ele>
        <time>2018-10-29T11:21:52Z</time>
      </trkpt>
      <trkpt lat="44.25535" lon="5.59167">
        <ele>1061</ele>
        <time>2018-10-29T11:22:52Z</time>
      </trkpt>
      <trkpt lat="44.25506" lon="5.5899">
        <ele>1078</ele>
        <time>2018-10-29T11:23:52Z</time>
      </trkpt>
      <trkpt lat="44.25434" lon="5.58822">
        <ele>1090</ele>
        <time>2018-10-29T11:24:52Z</time>
      </trkpt>
      <trkpt lat="44.25436" lon="5.58712">
        <ele>1110</ele>
        <time>2018-10-29T11:25:52Z</time>
      </trkpt>
      <trkpt lat="44.25398" lon="5.58672">
        <ele>1105</ele>
        <time>2018-10-29T11:26:52Z</time>
      </trkpt>
      <trkpt lat="44.25405" lon="5.58622">
        <ele>1114</ele>
        <time>2018-10-29T11:27:52Z</time>
      </trkpt>
      <trkpt lat="44.25461" lon="5.5866">
        <ele>1127</ele>
        <time>2018-10-29T11:28:52Z</time>
      </trkpt>
      <trkpt lat="44.2547" lon="5.58606">
        <ele>1136</ele>
        <time>2018-10-29T11:29:52Z</time>
      </trkpt>
      <trkpt lat="44.25424" lon="5.58571">
        <ele>1126</ele>
        <time>2018-10-29T11:30:52Z</time>
      </trkpt>
      <trkpt lat="44.25405" lon="5.58555">
        <ele>1121</ele>
        <time>2018-10-29T11:31:52Z</time>
      </trkpt>
      <trkpt lat="44.25453" lon="5.58479">
        <ele>1138</ele>
        <time>2018-10-29T11:32:52Z</time>
      </trkpt>
      <trkpt lat="44.255" lon="5.58517">
        <ele>1150</ele>
        <time>2018-10-29T11:33:52Z</time>
      </trkpt>
      <trkpt lat="44.25579" lon="5.58443">
        <ele>1173</ele>
        <time>2018-10-29T11:34:52Z</time>
      </trkpt>
      <trkpt lat="44.25608" lon="5.58349">
        <ele>1175</ele>
        <time>2018-10-29T11:35:52Z</time>
      </trkpt>
      <trkpt lat="44.25585" lon="5.58212">
        <ele>1174</ele>
        <time>2018-10-29T11:36:52Z</time>
      </trkpt>
      <trkpt lat="44.25663" lon="5.58189">
        <ele>1185</ele>
        <time>2018-10-29T11:37:52Z</time>
      </trkpt>
      <trkpt lat="44.25703" lon="5.58144">
        <ele>1196</ele>
        <time>2018-10-29T11:38:52Z</time>
      </trkpt>
      <trkpt lat="44.25641" lon="5.58106">
        <ele>1189</ele>
        <time>2018-10-29T11:39:52Z</time>
      </trkpt>
      <trkpt lat="44.25656" lon="5.58062">
        <ele>1197</ele>
        <time>2018-10-29T11:40:52Z</time>
      </trkpt>
      <trkpt lat="44.25602" lon="5.58048">
        <ele>1194</ele>
        <time>2018-10-29T11:41:52Z</time>
      </trkpt>
      <trkpt lat="44.25603" lon="5.57963">
        <ele>1211</ele>
        <time>2018-10-29T11:42:52Z</time>
      </trkpt>
      <trkpt lat="44.25652" lon="5.57979">
        <ele>1211</ele>
        <time>2018-10-29T11:43:52Z</time>
      </trkpt>
      <trkpt lat="44.25628" lon="5.57902">
        <ele>1225</ele>
        <time>2018-10-29T11:44:52Z</time>
      </trkpt>
      <trkpt lat="44.2559" lon="5.57911">
        <ele>1222</ele>
        <time>2018-10-29T11:45:52Z</time>
      </trkpt>
      <trkpt lat="44.2554" lon="5.57869">
        <ele>1221</ele>
        <time>2018-10-29T11:46:52Z</time>
      </trkpt>
      <trkpt lat="44.2551" lon="5.57774">
        <ele>1232</ele>
        <time>2018-10-29T11:47:52Z</time>
      </trkpt>
      <trkpt lat="44.25483" lon="5.57694">
        <ele>1241</ele>
        <time>2018-10-29T11:48:52Z</time>
      </trkpt>
      <trkpt lat="44.25429" lon="5.57651">
        <ele>1239</ele>
        <time>2018-10-29T11:49:52Z</time>
      </trkpt>
      <trkpt lat="44.25378" lon="5.57575">
        <ele>1244</ele>
        <time>2018-10-29T11:50:52Z</time>
      </trkpt>
      <trkpt lat="44.25356" lon="5.57537">
        <ele>1244</ele>
        <time>2018-10-29T11:51:52Z</time>
      </trkpt>
      <trkpt lat="44.25315" lon="5.57536">
        <ele>1238</ele>
        <time>2018-10-29T11:52:52Z</time>
      </trkpt>
      <trkpt lat="44.25296" lon="5.57467">
        <ele>1244</ele>
        <time>2018-10-29T11:53:52Z</time>
      </trkpt>
      <trkpt lat="44.25222" lon="5.57465">
        <ele>1241</ele>
        <time>2018-10-29T11:54:52Z</time>
      </trkpt>
      <trkpt lat="44.2519" lon="5.57404">
        <ele>1247</ele>
        <time>2018-10-29T11:55:52Z</time>
      </trkpt>
      <trkpt lat="44.25175" lon="5.57315">
        <ele>1242</ele>
        <time>2018-10-29T11:56:52Z</time>
      </trkpt>
      <trkpt lat="44.25146" lon="5.57256">
        <ele>1240</ele>
        <time>2018-10-29T11:57:52Z</time>
      </trkpt>
      <trkpt lat="44.25113" lon="5.57151">
        <ele>1234</ele>
        <time>2018-10-29T11:58:52Z</time>
      </trkpt>
      <trkpt lat="44.25086" lon="5.57011">
        <ele>1218</ele>
        <time>2018-10-29T11:59:52Z</time>
      </trkpt>
      <trkpt lat="44.25064" lon="5.56955">
        <ele>1218</ele>
        <time>2018-10-29T12:00:52Z</time>
      </trkpt>
      <trkpt lat="44.25041" lon="5.56935">
        <ele>1222</ele>
        <time>2018-10-29T12:01:52Z</time>
      </trkpt>
      <trkpt lat="44.25018" lon="5.56807">
        <ele>1214</ele>
        <time>2018-10-29T12:02:52Z</time>
      </trkpt>
      <trkpt lat="44.24992" lon="5.56722">
        <ele>1205</ele>
        <time>2018-10-29T12:03:52Z</time>
      </trkpt>
      <trkpt lat="44.24991" lon="5.5654">
        <ele>1200</ele>
        <time>2018-10-29T12:04:52Z</time>
      </trkpt>
      <trkpt lat="44.25081" lon="5.56303">
        <ele>1181</ele>
        <time>2018-10-29T12:05:52Z</time>
      </trkpt>
      <trkpt lat="44.25099" lon="5.56229">
        <ele>1170</ele>
        <time>2018-10-29T12:06:52Z</time>
      </trkpt>
      <trkpt lat="44.25155" lon="5.56186">
        <ele>1172</ele>
        <time>2018-10-29T12:07:52Z</time>
      </trkpt>
      <trkpt lat="44.25221" lon="5.5607">
        <ele>1156</ele>
        <time>2018-10-29T12:08:52Z</time>
      </trkpt>
      <trkpt lat="44.25222" lon="5.56034">
        <ele>1150</ele>
        <time>2018-10-29T12:09:52Z</time>
      </trkpt>
      <trkpt lat="44.25245" lon="5.55872">
        <ele>1136</ele>
        <time>2018-10-29T12:10:52Z</time>
      </trkpt>
      <trkpt lat="44.25227" lon="5.55912">
        <ele>1131</ele>
        <time>2018-10-29T12:11:52Z</time>
      </trkpt>
      <trkpt lat="44.2524" lon="5.55823">
        <ele>1132</ele>
        <time>2018-10-29T12:12:52Z</time>
      </trkpt>
      <trkpt lat="44.25265" lon="5.55784">
        <ele>1143</ele>
        <time>2018-10-29T12:13:52Z</time>
      </trkpt>
      <trkpt lat="44.25268" lon="5.55699">
        <ele>1146</ele>
        <time>2018-10-29T12:14:52Z</time>
      </trkpt>
      <trkpt lat="44.25305" lon="5.55655">
        <ele>1164</ele>
        <time>2018-10-29T12:15:52Z</time>
      </trkpt>
      <trkpt lat="44.25315" lon="5.55576">
        <ele>1174</ele>
        <time>2018-10-29T12:16:52Z</time>
      </trkpt>
      <trkpt lat="44.25303" lon="5.55491">
        <ele>1176</ele>
        <time>2018-10-29T12:17:52Z</time>
      </trkpt>
      <trkpt lat="44.25308" lon="5.55381">
        <ele>1190</ele>
        <time>2018-10-29T12:18:52Z</time>
      </trkpt>
      <trkpt lat="44.25284" lon="5.55302">
        <ele>1188</ele>
        <time>2018-10-29T12:19:52Z</time>
      </trkpt>
      <trkpt lat="44.25283" lon="5.5517">
        <ele>1192</ele>
        <time>2018-10-29T12:20:52Z</time>
      </trkpt>
      <trkpt lat="44.25261" lon="5.55105">
        <ele>1189</ele>
        <time>2018-10-29T12:21:52Z</time>
      </trkpt>
      <trkpt lat="44.25234" lon="5.5499">
        <ele>1195</ele>
        <time>2018-10-29T12:22:52Z</time>
      </trkpt>
      <trkpt lat="44.25197" lon="5.54914">
        <ele>1195</ele>
        <time>2018-10-29T12:23:52Z</time>
      </trkpt>
      <trkpt lat="44.25197" lon="5.54789">
        <ele>1197</ele>
        <time>2018-10-29T12:24:52Z</time>
      </trkpt>
      <trkpt lat="44.25179" lon="5.54591">
        <ele>1184</ele>
        <time>2018-10-29T12:25:52Z</time>
      </trkpt>
      <trkpt lat="44.25162" lon="5.54427">
        <ele>1172</ele>
        <time>2018-10-29T12:26:52Z</time>
      </trkpt>
      <trkpt lat="44.25137" lon="5.54358">
        <ele>1158</ele>
        <time>2018-10-29T12:27:52Z</time>
      </trkpt>
      <trkpt lat="44.25152" lon="5.54253">
        <ele>1156</ele>
        <time>2018-10-29T12:28:52Z</time>
      </trkpt>
      <trkpt lat="44.25128" lon="5.54089">
        <ele>1147</ele>
        <time>2018-10-29T12:29:52Z</time>
      </trkpt>
      <trkpt lat="44.25125" lon="5.54035">
        <ele>1149</ele>
        <time>2018-10-29T12:30:52Z</time>
      </trkpt>
      <trkpt lat="44.25093" lon="5.53949">
        <ele>1140</ele>
        <time>2018-10-29T12:31:52Z</time>
      </trkpt>
      <trkpt lat="44.25095" lon="5.53905">
        <ele>1146</ele>
        <time>2018-10-29T12:32:52Z</time>
      </trkpt>
      <trkpt lat="44.2508" lon="5.5381">
        <ele>1144</ele>
        <time>2018-10-29T12:33:52Z</time>
      </trkpt>
      <trkpt lat="44.25115" lon="5.53734">
        <ele>1147</ele>
        <time>2018-10-29T12:34:52Z</time>
      </trkpt>
      <trkpt lat="44.25129" lon="5.53653">
        <ele>1144</ele>
        <time>2018-10-29T12:35:52Z</time>
      </trkpt>
      <trkpt lat="44.2512" lon="5.53582">
        <ele>1134</ele>
        <time>2018-10-29T12:36:52Z</time>
      </trkpt>
      <trkpt lat="44.25131" lon="5.53476">
        <ele>1134</ele>
        <time>2018-10-29T12:37:52Z</time>
      </trkpt>
      <trkpt lat="44.25091" lon="5.53387">
        <ele>1128</ele>
        <time>2018-10-29T12:38:52Z</time>
      </trkpt>
      <trkpt lat="44.25014" lon="5.53333">
        <ele>1119</ele>
        <time>2018-10-29T12:39:52Z</time>
      </trkpt>
      <trkpt lat="44.24953" lon="5.53182">
        <ele>1114</ele>
        <time>2018-10-29T12:40:52Z</time>
      </trkpt>
      <trkpt lat="44.24912" lon="5.52987">
        <ele>1118</ele>
        <time>2018-10-29T12:41:52Z</time>
      </trkpt>
      <trkpt lat="44.249" lon="5.52794">
        <ele>1115</ele>
        <time>2018-10-29T12:42:52Z</time>
      </trkpt>
      <trkpt lat="44.24899" lon="5.52678">
        <ele>1109</ele>
        <time>2018-10-29T12:43:52Z</time>
      </trkpt>
      <trkpt lat="44.24876" lon="5.52597">
        <ele>1105</ele>
        <time>2018-10-29T12:44:52Z</time>
      </trkpt>
      <trkpt lat="44.24852" lon="5.52471">
        <ele>1101</ele>
        <time>2018-10-29T12:45:52Z</time>
      </trkpt>
      <trkpt lat="44.24842" lon="5.52379">
        <ele>1098</ele>
        <time>2018-10-29T12:46:52Z</time>
      </trkpt>
      <trkpt lat="44.24899" lon="5.52238">
        <ele>1101</ele>
        <time>2018-10-29T12:47:52Z</time>
      </trkpt>
      <trkpt lat="44.24927" lon="5.5207">
        <ele>1096</ele>
        <time>2018-10-29T12:48:52Z</time>
      </trkpt>
      <trkpt lat="44.24916" lon="5.52016">
        <ele>1091</ele>
        <time>2018-10-29T12:49:52Z</time>
      </trkpt>
      <trkpt lat="44.24932" lon="5.51966">
        <ele>1093</ele>
        <time>2018-10-29T12:50:52Z</time>
      </trkpt>
      <trkpt lat="44.2487" lon="5.51899">
        <ele>1074</ele>
        <time>2018-10-29T12:51:52Z</time>
      </trkpt>
      <trkpt lat="44.24834" lon="5.51814">
        <ele>1063</ele>
        <time>2018-10-29T12:52:52Z</time>
      </trkpt>
      <trkpt lat="44.24794" lon="5.51747">
        <ele>1044</ele>
        <time>2018-10-29T12:53:52Z</time>
      </trkpt>
      <trkpt lat="44.24772" lon="5.51594">
        <ele>1019</ele>
        <time>2018-10-29T12:54:52Z</time>
      </trkpt>
      <trkpt lat="44.24785" lon="5.51439">
        <ele>1012</ele>
        <time>2018-10-29T12:55:52Z</time>
      </trkpt>
      <trkpt lat="44.24789" lon="5.51246">
        <ele>1001</ele>
        <time>2018-10-29T12:56:52Z</time>
      </trkpt>
      <trkpt lat="44.24781" lon="5.51164">
        <ele>995</ele>
        <time>2018-10-29T12:57:52Z</time>
      </trkpt>
      <trkpt lat="44.24785" lon="5.51098">
        <ele>990</ele>
        <time>2018-10-29T12:58:52Z</time>
      </trkpt>
      <trkpt lat="44.24804" lon="5.51049">
        <ele>988</ele>
        <time>2018-10-29T12:59:52Z</time>
      </trkpt>
      <trkpt lat="44.24825" lon="5.50944">
        <ele>977</ele>
        <time>2018-10-29T13:00:52Z</time>
      </trkpt>
      <trkpt lat="44.24848" lon="5.50859">
        <ele>975</ele>
        <time>2018-10-29T13:01:52Z</time>
      </trkpt>
      <trkpt lat="44.24878" lon="5.50753">
        <ele>971</ele>
        <time>2018-10-29T13:02:52Z</time>
      </trkpt>
      <trkpt lat="44.24899" lon="5.5067">
        <ele>963</ele>
        <time>2018-10-29T13:03:52Z</time>
      </trkpt>
      <trkpt lat="44.24872" lon="5.50591">
        <ele>944</ele>
        <time>2018-10-29T13:04:52Z</time>
      </trkpt>
      <trkpt lat="44.24856" lon="5.50518">
        <ele>934</ele>
        <time>2018-10-29T13:05:52Z</time>
      </trkpt>
      <trkpt lat="44.24808" lon="5.50486">
        <ele>922</ele>
        <time>2018-10-29T13:06:52Z</time>
      </trkpt>
      <trkpt lat="44.24775" lon="5.50531">
        <ele>919</ele>
        <time>2018-10-29T13:07:52Z</time>
      </trkpt>
      <trkpt lat="44.2474" lon="5.50509">
        <ele>911</ele>
        <time>2018-10-29T13:08:52Z</time>
      </trkpt>
      <trkpt lat="44.24723" lon="5.50453">
        <ele>904</ele>
        <time>2018-10-29T13:09:52Z</time>
      </trkpt>
      <trkpt lat="44.24695" lon="5.50495">
        <ele>903</ele>
        <time>2018-10-29T13:10:52Z</time>
      </trkpt>
      <trkpt lat="44.24648" lon="5.50701">
        <ele>914</ele>
        <time>2018-10-29T13:11:52Z</time>
      </trkpt>
      <trkpt lat="44.24625" lon="5.50717">
        <ele>911</ele>
        <time>2018-10-29T13:12:52Z</time>
      </trkpt>
      <trkpt lat="44.24581" lon="5.50742">
        <ele>905</ele>
        <time>2018-10-29T13:13:52Z</time>
      </trkpt>
      <trkpt lat="44.24512" lon="5.50639">
        <ele>892</ele>
        <time>2018-10-29T13:14:52Z</time>
      </trkpt>
      <trkpt lat="44.24479" lon="5.50702">
        <ele>889</ele>
        <time>2018-10-29T13:15:52Z</time>
      </trkpt>
      <trkpt lat="44.24476" lon="5.50776">
        <ele>892</ele>
        <time>2018-10-29T13:16:52Z</time>
      </trkpt>
      <trkpt lat="44.24391" lon="5.50973">
        <ele>896</ele>
        <time>2018-10-29T13:17:52Z</time>
      </trkpt>
      <trkpt lat="44.24337" lon="5.5104">
        <ele>896</ele>
        <time>2018-10-29T13:18:52Z</time>
      </trkpt>
      <trkpt lat="44.24316" lon="5.51009">
        <ele>892</ele>
        <time>2018-10-29T13:19:52Z</time>
      </trkpt>
      <trkpt lat="44.24331" lon="5.5098">
        <ele>890</ele>
        <time>2018-10-29T13:20:52Z</time>
      </trkpt>
      <trkpt lat="44.24241" lon="5.50957">
        <ele>878</ele>
        <time>2018-10-29T13:21:52Z</time>
      </trkpt>
      <trkpt lat="44.24246" lon="5.50807">
        <ele>867</ele>
        <time>2018-10-29T13:22:52Z</time>
      </trkpt>
      <trkpt lat="44.24175" lon="5.50838">
        <ele>868</ele>
        <time>2018-10-29T13:23:52Z</time>
      </trkpt>
      <trkpt lat="44.24172" lon="5.50554">
        <ele>858</ele>
        <time>2018-10-29T13:24:52Z</time>
      </trkpt>
      <trkpt lat="44.24175" lon="5.50471">
        <ele>852</ele>
        <time>2018-10-29T13:25:52Z</time>
      </trkpt>
      <trkpt lat="44.24128" lon="5.50376">
        <ele>848</ele>
        <time>2018-10-29T13:26:52Z</time>
      </trkpt>
      <trkpt lat="44.24059" lon="5.50318">
        <ele>846</ele>
        <time>2018-10-29T13:27:52Z</time>
      </trkpt>
      <trkpt lat="44.23909" lon="5.50259">
        <ele>843</ele>
        <time>2018-10-29T13:28:52Z</time>
      </trkpt>
      <trkpt lat="44.23733" lon="5.50181">
        <ele>838</ele>
        <time>2018-10-29T13:29:52Z</time>
      </trkpt>
      <trkpt lat="44.23507" lon="5.50136">
        <ele>838</ele>
        <time>2018-10-29T13:30:52Z</time>
      </trkpt>
      <trkpt lat="44.23371" lon="5.5008">
        <ele>832</ele>
        <time>2018-10-29T13:31:52Z</time>
      </trkpt>
      <trkpt lat="44.23205" lon="5.50168">
        <ele>829</ele>
        <time>2018-10-29T13:32:52Z</time>
      </trkpt>
      <trkpt lat="44.23017" lon="5.50257">
        <ele>825</ele>
        <time>2018-10-29T13:33:52Z</time>
      </trkpt>
      <trkpt lat="44.2298" lon="5.50416">
        <ele>834</ele>
        <time>2018-10-29T13:34:52Z</time>
      </trkpt>
      <trkpt lat="44.22944" lon="5.50513">
        <ele>836</ele>
        <time>2018-10-29T13:35:52Z</time>
      </trkpt>
    </trkseg>
  </trk>
</gpx>